sensor_id;sensor_type;location;lat;lon;timestamp;P1;durP1;ratioP1;P2;durP2;ratioP2
6093;SDS011;19964;42.060;24.700;2022-11-20T00:01:28;8.07;;;5.37;;
6093;SDS011;19964;42.060;24.700;2022-11-20T00:03:56;9.80;;;7.60;;
6093;SDS011;19964;42.060;24.700;2022-11-20T00:06:24;8.37;;;7.50;;
6093;SDS011;19964;42.060;24.700;2022-11-20T00:08:55;10.53;;;5.67;;
6093;SDS011;19964;42.060;24.700;2022-11-20T00:11:23;8.30;;;6.10;;
6093;SDS011;19964;42.060;24.700;2022-11-20T00:13:52;7.07;;;5.90;;
6093;SDS011;19964;42.060;24.700;2022-11-20T00:16:23;9.73;;;6.10;;
6093;SDS011;19964;42.060;24.700;2022-11-20T00:18:51;9.50;;;5.90;;
6093;SDS011;19964;42.060;24.700;2022-11-20T00:21:19;10.87;;;5.30;;
6093;SDS011;19964;42.060;24.700;2022-11-20T00:23:48;9.37;;;5.50;;
6093;SDS011;19964;42.060;24.700;2022-11-20T00:26:18;7.67;;;4.97;;
6093;SDS011;19964;42.060;24.700;2022-11-20T00:28:48;9.07;;;5.50;;
6093;SDS011;19964;42.060;24.700;2022-11-20T00:31:16;5.70;;;4.27;;
6093;SDS011;19964;42.060;24.700;2022-11-20T00:33:44;4.40;;;4.10;;
6093;SDS011;19964;42.060;24.700;2022-11-20T00:36:12;7.10;;;4.60;;
6093;SDS011;19964;42.060;24.700;2022-11-20T00:38:40;5.33;;;4.57;;
6093;SDS011;19964;42.060;24.700;2022-11-20T00:41:08;7.87;;;3.90;;
6093;SDS011;19964;42.060;24.700;2022-11-20T00:43:37;4.77;;;3.87;;
6093;SDS011;19964;42.060;24.700;2022-11-20T00:46:05;7.20;;;3.73;;
6093;SDS011;19964;42.060;24.700;2022-11-20T00:48:33;5.67;;;3.80;;
6093;SDS011;19964;42.060;24.700;2022-11-20T00:51:00;7.93;;;3.10;;
6093;SDS011;19964;42.060;24.700;2022-11-20T00:53:27;6.57;;;3.50;;
6093;SDS011;19964;42.060;24.700;2022-11-20T00:55:54;4.90;;;3.20;;
6093;SDS011;19964;42.060;24.700;2022-11-20T00:58:22;4.77;;;3.23;;
6093;SDS011;19964;42.060;24.700;2022-11-20T01:00:50;6.00;;;3.20;;
6093;SDS011;19964;42.060;24.700;2022-11-20T01:03:18;3.83;;;2.93;;
6093;SDS011;19964;42.060;24.700;2022-11-20T01:05:45;5.17;;;3.17;;
6093;SDS011;19964;42.060;24.700;2022-11-20T01:08:12;13.43;;;8.53;;
6093;SDS011;19964;42.060;24.700;2022-11-20T01:10:38;9.20;;;5.33;;
6093;SDS011;19964;42.060;24.700;2022-11-20T01:13:05;5.23;;;4.00;;
6093;SDS011;19964;42.060;24.700;2022-11-20T01:15:51;7.33;;;3.50;;
6093;SDS011;19964;42.060;24.700;2022-11-20T01:18:18;4.60;;;3.30;;
6093;SDS011;19964;42.060;24.700;2022-11-20T01:20:45;9.30;;;3.53;;
6093;SDS011;19964;42.060;24.700;2022-11-20T01:23:11;9.47;;;5.50;;
6093;SDS011;19964;42.060;24.700;2022-11-20T01:25:41;4.40;;;3.30;;
6093;SDS011;19964;42.060;24.700;2022-11-20T01:28:08;6.80;;;5.10;;
6093;SDS011;19964;42.060;24.700;2022-11-20T01:30:35;3.43;;;3.20;;
6093;SDS011;19964;42.060;24.700;2022-11-20T01:33:03;6.03;;;3.10;;
6093;SDS011;19964;42.060;24.700;2022-11-20T01:35:30;8.23;;;3.17;;
6093;SDS011;19964;42.060;24.700;2022-11-20T01:37:56;5.70;;;3.00;;
6093;SDS011;19964;42.060;24.700;2022-11-20T01:40:23;6.40;;;3.10;;
6093;SDS011;19964;42.060;24.700;2022-11-20T01:42:51;9.90;;;3.10;;
6093;SDS011;19964;42.060;24.700;2022-11-20T01:48:40;5.00;;;3.90;;
6093;SDS011;19964;42.060;24.700;2022-11-20T01:51:15;3.97;;;3.50;;
6093;SDS011;19964;42.060;24.700;2022-11-20T01:53:47;3.73;;;3.20;;
6093;SDS011;19964;42.060;24.700;2022-11-20T01:56:14;3.90;;;3.60;;
6093;SDS011;19964;42.060;24.700;2022-11-20T01:58:43;7.87;;;3.30;;
6093;SDS011;19964;42.060;24.700;2022-11-20T02:01:15;3.50;;;3.20;;
6093;SDS011;19964;42.060;24.700;2022-11-20T02:03:43;7.23;;;3.27;;
6093;SDS011;19964;42.060;24.700;2022-11-20T02:06:13;3.83;;;3.17;;
6093;SDS011;19964;42.060;24.700;2022-11-20T02:08:45;3.97;;;3.67;;
6093;SDS011;19964;42.060;24.700;2022-11-20T02:11:12;8.43;;;3.10;;
6093;SDS011;19964;42.060;24.700;2022-11-20T02:13:39;6.80;;;3.83;;
6093;SDS011;19964;42.060;24.700;2022-11-20T02:16:09;4.27;;;3.87;;
6093;SDS011;19964;42.060;24.700;2022-11-20T02:18:37;5.97;;;2.90;;
6093;SDS011;19964;42.060;24.700;2022-11-20T02:21:07;5.03;;;2.90;;
6093;SDS011;19964;42.060;24.700;2022-11-20T02:23:39;3.77;;;2.70;;
6093;SDS011;19964;42.060;24.700;2022-11-20T02:26:19;4.60;;;2.67;;
6093;SDS011;19964;42.060;24.700;2022-11-20T02:28:49;5.03;;;2.80;;
6093;SDS011;19964;42.060;24.700;2022-11-20T02:31:16;4.13;;;2.70;;
6093;SDS011;19964;42.060;24.700;2022-11-20T02:33:43;6.57;;;2.57;;
6093;SDS011;19964;42.060;24.700;2022-11-20T02:36:11;3.07;;;2.70;;
6093;SDS011;19964;42.060;24.700;2022-11-20T02:38:42;4.67;;;2.50;;
6093;SDS011;19964;42.060;24.700;2022-11-20T02:41:11;3.73;;;2.60;;
6093;SDS011;19964;42.060;24.700;2022-11-20T02:43:38;3.63;;;2.37;;
6093;SDS011;19964;42.060;24.700;2022-11-20T02:46:06;4.17;;;2.17;;
6093;SDS011;19964;42.060;24.700;2022-11-20T02:48:33;3.00;;;2.80;;
6093;SDS011;19964;42.060;24.700;2022-11-20T02:51:00;3.07;;;2.87;;
6093;SDS011;19964;42.060;24.700;2022-11-20T02:53:27;3.10;;;2.50;;
6093;SDS011;19964;42.060;24.700;2022-11-20T02:55:54;7.40;;;3.03;;
6093;SDS011;19964;42.060;24.700;2022-11-20T02:58:22;2.80;;;2.60;;
6093;SDS011;19964;42.060;24.700;2022-11-20T03:00:49;4.73;;;2.80;;
6093;SDS011;19964;42.060;24.700;2022-11-20T03:03:16;6.50;;;2.80;;
6093;SDS011;19964;42.060;24.700;2022-11-20T03:05:43;5.33;;;3.00;;
6093;SDS011;19964;42.060;24.700;2022-11-20T03:08:10;3.47;;;2.60;;
6093;SDS011;19964;42.060;24.700;2022-11-20T03:10:37;4.43;;;2.80;;
6093;SDS011;19964;42.060;24.700;2022-11-20T03:13:03;4.90;;;2.53;;
6093;SDS011;19964;42.060;24.700;2022-11-20T03:15:31;4.77;;;2.60;;
6093;SDS011;19964;42.060;24.700;2022-11-20T03:17:58;3.07;;;2.33;;
6093;SDS011;19964;42.060;24.700;2022-11-20T03:20:25;3.03;;;2.13;;
6093;SDS011;19964;42.060;24.700;2022-11-20T03:22:53;2.80;;;2.60;;
6093;SDS011;19964;42.060;24.700;2022-11-20T03:25:20;4.10;;;2.77;;
6093;SDS011;19964;42.060;24.700;2022-11-20T03:27:46;3.80;;;2.40;;
6093;SDS011;19964;42.060;24.700;2022-11-20T03:30:13;4.97;;;2.37;;
6093;SDS011;19964;42.060;24.700;2022-11-20T03:32:42;2.67;;;2.43;;
6093;SDS011;19964;42.060;24.700;2022-11-20T03:35:09;4.37;;;2.40;;
6093;SDS011;19964;42.060;24.700;2022-11-20T03:37:36;2.70;;;2.20;;
6093;SDS011;19964;42.060;24.700;2022-11-20T03:40:04;2.70;;;2.40;;
6093;SDS011;19964;42.060;24.700;2022-11-20T03:42:32;5.03;;;2.30;;
6093;SDS011;19964;42.060;24.700;2022-11-20T03:45:11;3.53;;;2.27;;
6093;SDS011;19964;42.060;24.700;2022-11-20T03:47:38;3.67;;;2.20;;
6093;SDS011;19964;42.060;24.700;2022-11-20T03:50:07;4.50;;;2.27;;
6093;SDS011;19964;42.060;24.700;2022-11-20T03:52:34;3.67;;;2.23;;
6093;SDS011;19964;42.060;24.700;2022-11-20T03:55:01;3.47;;;2.30;;
6093;SDS011;19964;42.060;24.700;2022-11-20T03:57:28;14.43;;;9.07;;
6093;SDS011;19964;42.060;24.700;2022-11-20T03:59:55;20.67;;;14.30;;
6093;SDS011;19964;42.060;24.700;2022-11-20T04:02:22;24.30;;;16.97;;
6093;SDS011;19964;42.060;24.700;2022-11-20T04:04:49;25.40;;;18.37;;
6093;SDS011;19964;42.060;24.700;2022-11-20T04:07:17;27.00;;;19.00;;
6093;SDS011;19964;42.060;24.700;2022-11-20T04:09:44;25.43;;;18.13;;
6093;SDS011;19964;42.060;24.700;2022-11-20T04:12:11;22.40;;;16.90;;
6093;SDS011;19964;42.060;24.700;2022-11-20T04:14:37;18.60;;;14.30;;
6093;SDS011;19964;42.060;24.700;2022-11-20T04:17:04;14.33;;;10.87;;
6093;SDS011;19964;42.060;24.700;2022-11-20T04:19:31;8.77;;;4.80;;
6093;SDS011;19964;42.060;24.700;2022-11-20T04:21:58;10.40;;;6.90;;
6093;SDS011;19964;42.060;24.700;2022-11-20T04:24:26;9.53;;;6.20;;
6093;SDS011;19964;42.060;24.700;2022-11-20T04:26:53;11.43;;;6.50;;
6093;SDS011;19964;42.060;24.700;2022-11-20T04:29:20;88.27;;;44.07;;
6093;SDS011;19964;42.060;24.700;2022-11-20T04:31:46;127.23;;;109.67;;
6093;SDS011;19964;42.060;24.700;2022-11-20T04:34:13;52.33;;;46.67;;
6093;SDS011;19964;42.060;24.700;2022-11-20T04:36:40;14.00;;;11.63;;
6093;SDS011;19964;42.060;24.700;2022-11-20T04:39:11;21.80;;;19.63;;
6093;SDS011;19964;42.060;24.700;2022-11-20T04:41:41;9.50;;;8.10;;
6093;SDS011;19964;42.060;24.700;2022-11-20T04:44:09;17.90;;;11.97;;
6093;SDS011;19964;42.060;24.700;2022-11-20T04:46:37;17.03;;;11.57;;
6093;SDS011;19964;42.060;24.700;2022-11-20T04:49:05;12.73;;;9.83;;
6093;SDS011;19964;42.060;24.700;2022-11-20T04:51:32;11.13;;;8.00;;
6093;SDS011;19964;42.060;24.700;2022-11-20T04:53:59;12.93;;;11.40;;
6093;SDS011;19964;42.060;24.700;2022-11-20T04:56:27;14.60;;;9.53;;
6093;SDS011;19964;42.060;24.700;2022-11-20T04:58:55;12.07;;;10.73;;
6093;SDS011;19964;42.060;24.700;2022-11-20T05:01:22;34.67;;;31.20;;
6093;SDS011;19964;42.060;24.700;2022-11-20T05:03:50;29.73;;;27.10;;
6093;SDS011;19964;42.060;24.700;2022-11-20T05:06:18;32.73;;;26.40;;
6093;SDS011;19964;42.060;24.700;2022-11-20T05:08:47;15.03;;;9.87;;
6093;SDS011;19964;42.060;24.700;2022-11-20T05:11:15;21.87;;;19.77;;
6093;SDS011;19964;42.060;24.700;2022-11-20T05:13:44;17.13;;;14.77;;
6093;SDS011;19964;42.060;24.700;2022-11-20T05:16:12;14.63;;;13.20;;
6093;SDS011;19964;42.060;24.700;2022-11-20T05:18:40;18.23;;;16.00;;
6093;SDS011;19964;42.060;24.700;2022-11-20T05:21:07;12.67;;;8.03;;
6093;SDS011;19964;42.060;24.700;2022-11-20T05:23:35;8.53;;;5.63;;
6093;SDS011;19964;42.060;24.700;2022-11-20T05:26:03;10.97;;;8.50;;
6093;SDS011;19964;42.060;24.700;2022-11-20T05:28:30;8.53;;;7.40;;
6093;SDS011;19964;42.060;24.700;2022-11-20T05:31:03;8.00;;;7.20;;
6093;SDS011;19964;42.060;24.700;2022-11-20T05:33:32;9.00;;;8.20;;
6093;SDS011;19964;42.060;24.700;2022-11-20T05:35:59;11.87;;;7.73;;
6093;SDS011;19964;42.060;24.700;2022-11-20T05:38:26;9.30;;;6.37;;
6093;SDS011;19964;42.060;24.700;2022-11-20T05:40:53;8.20;;;5.67;;
6093;SDS011;19964;42.060;24.700;2022-11-20T05:43:20;10.43;;;7.33;;
6093;SDS011;19964;42.060;24.700;2022-11-20T05:45:51;10.53;;;7.47;;
6093;SDS011;19964;42.060;24.700;2022-11-20T05:48:19;8.37;;;5.27;;
6093;SDS011;19964;42.060;24.700;2022-11-20T05:50:47;6.73;;;6.13;;
6093;SDS011;19964;42.060;24.700;2022-11-20T05:53:14;9.60;;;6.87;;
6093;SDS011;19964;42.060;24.700;2022-11-20T05:55:41;7.83;;;5.97;;
6093;SDS011;19964;42.060;24.700;2022-11-20T05:58:07;12.43;;;6.30;;
6093;SDS011;19964;42.060;24.700;2022-11-20T06:00:34;10.40;;;6.13;;
6093;SDS011;19964;42.060;24.700;2022-11-20T06:03:01;12.67;;;6.17;;
6093;SDS011;19964;42.060;24.700;2022-11-20T06:05:28;10.33;;;9.30;;
6093;SDS011;19964;42.060;24.700;2022-11-20T06:07:56;6.03;;;5.20;;
6093;SDS011;19964;42.060;24.700;2022-11-20T06:10:23;8.07;;;6.47;;
6093;SDS011;19964;42.060;24.700;2022-11-20T06:12:50;7.80;;;4.93;;
6093;SDS011;19964;42.060;24.700;2022-11-20T06:15:17;7.33;;;6.60;;
6093;SDS011;19964;42.060;24.700;2022-11-20T06:17:43;7.20;;;4.80;;
6093;SDS011;19964;42.060;24.700;2022-11-20T06:20:10;10.43;;;7.80;;
6093;SDS011;19964;42.060;24.700;2022-11-20T06:22:37;6.50;;;5.83;;
6093;SDS011;19964;42.060;24.700;2022-11-20T06:25:05;7.07;;;4.90;;
6093;SDS011;19964;42.060;24.700;2022-11-20T06:27:33;7.20;;;5.77;;
6093;SDS011;19964;42.060;24.700;2022-11-20T06:30:03;8.63;;;5.10;;
6093;SDS011;19964;42.060;24.700;2022-11-20T06:32:33;8.57;;;5.07;;
6093;SDS011;19964;42.060;24.700;2022-11-20T06:34:59;4.30;;;2.40;;
6093;SDS011;19964;42.060;24.700;2022-11-20T06:37:26;2.90;;;2.70;;
6093;SDS011;19964;42.060;24.700;2022-11-20T06:39:53;3.57;;;2.40;;
6093;SDS011;19964;42.060;24.700;2022-11-20T06:42:21;4.83;;;2.53;;
6093;SDS011;19964;42.060;24.700;2022-11-20T06:44:48;6.17;;;4.47;;
6093;SDS011;19964;42.060;24.700;2022-11-20T06:47:14;8.03;;;6.83;;
6093;SDS011;19964;42.060;24.700;2022-11-20T06:49:41;11.27;;;7.53;;
6093;SDS011;19964;42.060;24.700;2022-11-20T06:52:08;13.70;;;12.30;;
6093;SDS011;19964;42.060;24.700;2022-11-20T06:54:35;9.53;;;4.80;;
6093;SDS011;19964;42.060;24.700;2022-11-20T06:57:02;7.97;;;7.17;;
6093;SDS011;19964;42.060;24.700;2022-11-20T06:59:30;9.07;;;3.33;;
6093;SDS011;19964;42.060;24.700;2022-11-20T07:01:57;5.03;;;3.60;;
6093;SDS011;19964;42.060;24.700;2022-11-20T07:04:23;4.83;;;2.80;;
6093;SDS011;19964;42.060;24.700;2022-11-20T07:06:50;8.10;;;6.67;;
6093;SDS011;19964;42.060;24.700;2022-11-20T07:09:17;9.13;;;4.10;;
6093;SDS011;19964;42.060;24.700;2022-11-20T07:11:44;2.83;;;2.43;;
6093;SDS011;19964;42.060;24.700;2022-11-20T07:14:11;2.83;;;2.53;;
6093;SDS011;19964;42.060;24.700;2022-11-20T07:16:39;11.17;;;6.77;;
6093;SDS011;19964;42.060;24.700;2022-11-20T07:19:06;9.63;;;7.37;;
6093;SDS011;19964;42.060;24.700;2022-11-20T07:21:33;10.83;;;8.23;;
6093;SDS011;19964;42.060;24.700;2022-11-20T07:23:59;11.20;;;7.33;;
6093;SDS011;19964;42.060;24.700;2022-11-20T07:26:26;15.03;;;9.10;;
6093;SDS011;19964;42.060;24.700;2022-11-20T07:28:53;21.13;;;14.97;;
6093;SDS011;19964;42.060;24.700;2022-11-20T07:31:20;19.67;;;14.17;;
6093;SDS011;19964;42.060;24.700;2022-11-20T07:33:49;24.07;;;19.90;;
6093;SDS011;19964;42.060;24.700;2022-11-20T07:36:16;13.60;;;7.87;;
6093;SDS011;19964;42.060;24.700;2022-11-20T07:38:42;15.37;;;9.47;;
6093;SDS011;19964;42.060;24.700;2022-11-20T07:41:09;12.80;;;10.47;;
6093;SDS011;19964;42.060;24.700;2022-11-20T07:43:39;17.60;;;13.70;;
6093;SDS011;19964;42.060;24.700;2022-11-20T07:46:06;14.57;;;9.13;;
6093;SDS011;19964;42.060;24.700;2022-11-20T07:48:33;19.23;;;9.67;;
6093;SDS011;19964;42.060;24.700;2022-11-20T07:51:01;9.27;;;6.07;;
6093;SDS011;19964;42.060;24.700;2022-11-20T07:53:28;13.10;;;6.83;;
6093;SDS011;19964;42.060;24.700;2022-11-20T07:55:55;9.43;;;5.87;;
6093;SDS011;19964;42.060;24.700;2022-11-20T07:58:26;15.20;;;10.37;;
6093;SDS011;19964;42.060;24.700;2022-11-20T08:00:55;13.33;;;7.80;;
6093;SDS011;19964;42.060;24.700;2022-11-20T08:03:21;8.60;;;5.60;;
6093;SDS011;19964;42.060;24.700;2022-11-20T08:05:49;11.17;;;5.03;;
6093;SDS011;19964;42.060;24.700;2022-11-20T08:08:17;12.20;;;7.17;;
6093;SDS011;19964;42.060;24.700;2022-11-20T08:10:43;17.03;;;11.33;;
6093;SDS011;19964;42.060;24.700;2022-11-20T08:13:10;14.53;;;9.83;;
6093;SDS011;19964;42.060;24.700;2022-11-20T08:15:54;13.32;;;8.02;;
6093;SDS011;19964;42.060;24.700;2022-11-20T08:18:21;8.82;;;6.70;;
6093;SDS011;19964;42.060;24.700;2022-11-20T08:20:48;12.13;;;8.20;;
6093;SDS011;19964;42.060;24.700;2022-11-20T08:23:16;4.57;;;3.80;;
6093;SDS011;19964;42.060;24.700;2022-11-20T08:25:43;5.05;;;3.60;;
6093;SDS011;19964;42.060;24.700;2022-11-20T08:28:09;11.73;;;9.38;;
6093;SDS011;19964;42.060;24.700;2022-11-20T08:30:36;10.57;;;6.35;;
6093;SDS011;19964;42.060;24.700;2022-11-20T08:33:04;6.78;;;4.13;;
6093;SDS011;19964;42.060;24.700;2022-11-20T08:35:33;6.47;;;2.50;;
6093;SDS011;19964;42.060;24.700;2022-11-20T08:38:01;5.18;;;2.67;;
6093;SDS011;19964;42.060;24.700;2022-11-20T08:40:29;3.78;;;2.40;;
6093;SDS011;19964;42.060;24.700;2022-11-20T08:42:56;2.42;;;2.00;;
6093;SDS011;19964;42.060;24.700;2022-11-20T08:45:23;4.72;;;2.13;;
6093;SDS011;19964;42.060;24.700;2022-11-20T08:47:50;3.75;;;1.60;;
6093;SDS011;19964;42.060;24.700;2022-11-20T08:50:17;5.90;;;1.98;;
6093;SDS011;19964;42.060;24.700;2022-11-20T08:52:44;3.65;;;1.92;;
6093;SDS011;19964;42.060;24.700;2022-11-20T08:55:10;7.85;;;2.47;;
6093;SDS011;19964;42.060;24.700;2022-11-20T08:57:38;7.88;;;2.33;;
6093;SDS011;19964;42.060;24.700;2022-11-20T09:00:06;3.33;;;2.30;;
6093;SDS011;19964;42.060;24.700;2022-11-20T09:02:34;3.15;;;2.03;;
6093;SDS011;19964;42.060;24.700;2022-11-20T09:05:01;2.83;;;2.30;;
6093;SDS011;19964;42.060;24.700;2022-11-20T09:07:29;4.47;;;2.30;;
6093;SDS011;19964;42.060;24.700;2022-11-20T09:09:56;4.20;;;2.40;;
6093;SDS011;19964;42.060;24.700;2022-11-20T09:12:23;5.05;;;2.95;;
6093;SDS011;19964;42.060;24.700;2022-11-20T09:14:51;5.47;;;2.17;;
6093;SDS011;19964;42.060;24.700;2022-11-20T09:17:18;3.03;;;2.30;;
6093;SDS011;19964;42.060;24.700;2022-11-20T09:19:45;3.40;;;2.42;;
6093;SDS011;19964;42.060;24.700;2022-11-20T09:22:12;5.10;;;2.00;;
6093;SDS011;19964;42.060;24.700;2022-11-20T09:24:39;4.18;;;2.00;;
6093;SDS011;19964;42.060;24.700;2022-11-20T09:27:05;2.92;;;1.90;;
6093;SDS011;19964;42.060;24.700;2022-11-20T09:29:32;2.30;;;1.67;;
6093;SDS011;19964;42.060;24.700;2022-11-20T09:32:00;3.90;;;2.00;;
6093;SDS011;19964;42.060;24.700;2022-11-20T09:34:27;4.55;;;2.22;;
6093;SDS011;19964;42.060;24.700;2022-11-20T09:36:54;3.50;;;2.08;;
6093;SDS011;19964;42.060;24.700;2022-11-20T09:39:21;4.68;;;1.98;;
6093;SDS011;19964;42.060;24.700;2022-11-20T09:41:53;4.25;;;1.90;;
6093;SDS011;19964;42.060;24.700;2022-11-20T09:44:41;5.88;;;2.35;;
6093;SDS011;19964;42.060;24.700;2022-11-20T09:47:25;12.30;;;5.72;;
6093;SDS011;19964;42.060;24.700;2022-11-20T09:50:04;10.30;;;4.55;;
6093;SDS011;19964;42.060;24.700;2022-11-20T09:52:47;6.68;;;3.63;;
6093;SDS011;19964;42.060;24.700;2022-11-20T09:55:25;8.45;;;4.20;;
6093;SDS011;19964;42.060;24.700;2022-11-20T09:57:53;4.97;;;2.90;;
6093;SDS011;19964;42.060;24.700;2022-11-20T10:00:21;5.82;;;2.30;;
6093;SDS011;19964;42.060;24.700;2022-11-20T10:02:51;6.70;;;2.60;;
6093;SDS011;19964;42.060;24.700;2022-11-20T10:05:23;5.28;;;2.45;;
6093;SDS011;19964;42.060;24.700;2022-11-20T10:07:55;5.40;;;2.58;;
6093;SDS011;19964;42.060;24.700;2022-11-20T10:10:41;2.83;;;2.45;;
6093;SDS011;19964;42.060;24.700;2022-11-20T10:13:20;5.10;;;2.60;;
6093;SDS011;19964;42.060;24.700;2022-11-20T10:15:59;5.28;;;2.33;;
6093;SDS011;19964;42.060;24.700;2022-11-20T10:18:48;7.15;;;2.75;;
6093;SDS011;19964;42.060;24.700;2022-11-20T10:21:28;11.15;;;4.07;;
6093;SDS011;19964;42.060;24.700;2022-11-20T10:24:07;14.07;;;3.30;;
6093;SDS011;19964;42.060;24.700;2022-11-20T10:26:54;8.55;;;3.00;;
6093;SDS011;19964;42.060;24.700;2022-11-20T10:29:33;7.18;;;2.20;;
6093;SDS011;19964;42.060;24.700;2022-11-20T10:32:03;12.85;;;2.40;;
6093;SDS011;19964;42.060;24.700;2022-11-20T10:34:38;9.48;;;2.30;;
6093;SDS011;19964;42.060;24.700;2022-11-20T10:37:14;13.52;;;2.97;;
6093;SDS011;19964;42.060;24.700;2022-11-20T10:39:47;10.15;;;2.70;;
6093;SDS011;19964;42.060;24.700;2022-11-20T10:42:20;10.82;;;2.67;;
6093;SDS011;19964;42.060;24.700;2022-11-20T10:44:53;15.05;;;2.72;;
6093;SDS011;19964;42.060;24.700;2022-11-20T10:47:27;14.68;;;2.65;;
6093;SDS011;19964;42.060;24.700;2022-11-20T10:49:58;10.85;;;2.90;;
6093;SDS011;19964;42.060;24.700;2022-11-20T10:52:32;9.77;;;2.72;;
6093;SDS011;19964;42.060;24.700;2022-11-20T10:55:07;10.65;;;2.50;;
6093;SDS011;19964;42.060;24.700;2022-11-20T10:57:46;14.23;;;3.08;;
6093;SDS011;19964;42.060;24.700;2022-11-20T11:00:23;13.70;;;2.85;;
6093;SDS011;19964;42.060;24.700;2022-11-20T11:02:51;13.70;;;3.20;;
6093;SDS011;19964;42.060;24.700;2022-11-20T11:05:31;14.88;;;3.22;;
6093;SDS011;19964;42.060;24.700;2022-11-20T11:08:03;14.75;;;2.60;;
6093;SDS011;19964;42.060;24.700;2022-11-20T11:10:37;9.98;;;2.65;;
6093;SDS011;19964;42.060;24.700;2022-11-20T11:13:18;8.27;;;2.25;;
6093;SDS011;19964;42.060;24.700;2022-11-20T11:15:46;16.83;;;3.17;;
6093;SDS011;19964;42.060;24.700;2022-11-20T11:18:22;10.43;;;2.50;;
6093;SDS011;19964;42.060;24.700;2022-11-20T11:20:52;16.58;;;2.70;;
6093;SDS011;19964;42.060;24.700;2022-11-20T11:23:29;13.50;;;2.83;;
6093;SDS011;19964;42.060;24.700;2022-11-20T11:25:59;13.40;;;2.85;;
6093;SDS011;19964;42.060;24.700;2022-11-20T11:28:26;15.80;;;4.25;;
6093;SDS011;19964;42.060;24.700;2022-11-20T11:30:54;10.70;;;5.65;;
6093;SDS011;19964;42.060;24.700;2022-11-20T11:33:22;11.18;;;4.72;;
6093;SDS011;19964;42.060;24.700;2022-11-20T11:35:50;8.40;;;5.15;;
6093;SDS011;19964;42.060;24.700;2022-11-20T11:38:23;13.85;;;6.65;;
6093;SDS011;19964;42.060;24.700;2022-11-20T11:40:56;13.20;;;4.60;;
6093;SDS011;19964;42.060;24.700;2022-11-20T11:43:24;11.13;;;4.70;;
6093;SDS011;19964;42.060;24.700;2022-11-20T11:46:25;13.45;;;4.88;;
6093;SDS011;19964;42.060;24.700;2022-11-20T11:48:58;12.52;;;4.90;;
6093;SDS011;19964;42.060;24.700;2022-11-20T11:51:31;10.82;;;3.90;;
6093;SDS011;19964;42.060;24.700;2022-11-20T11:54:03;14.48;;;3.60;;
6093;SDS011;19964;42.060;24.700;2022-11-20T11:56:37;14.65;;;3.15;;
6093;SDS011;19964;42.060;24.700;2022-11-20T11:59:04;12.57;;;2.60;;
6093;SDS011;19964;42.060;24.700;2022-11-20T12:01:37;14.00;;;2.97;;
6093;SDS011;19964;42.060;24.700;2022-11-20T12:04:13;15.80;;;2.70;;
6093;SDS011;19964;42.060;24.700;2022-11-20T12:07:01;11.27;;;2.70;;
6093;SDS011;19964;42.060;24.700;2022-11-20T12:09:35;8.68;;;3.08;;
6093;SDS011;19964;42.060;24.700;2022-11-20T12:12:09;11.68;;;2.40;;
6093;SDS011;19964;42.060;24.700;2022-11-20T12:14:41;12.65;;;3.60;;
6093;SDS011;19964;42.060;24.700;2022-11-20T12:17:12;10.48;;;2.97;;
6093;SDS011;19964;42.060;24.700;2022-11-20T12:19:40;10.30;;;3.65;;
6093;SDS011;19964;42.060;24.700;2022-11-20T12:22:11;13.00;;;3.63;;
6093;SDS011;19964;42.060;24.700;2022-11-20T12:24:52;12.68;;;3.95;;
6093;SDS011;19964;42.060;24.700;2022-11-20T12:27:39;15.10;;;3.60;;
6093;SDS011;19964;42.060;24.700;2022-11-20T12:30:14;15.20;;;3.47;;
6093;SDS011;19964;42.060;24.700;2022-11-20T12:35:38;14.85;;;4.85;;
6093;SDS011;19964;42.060;24.700;2022-11-20T12:38:21;14.48;;;4.80;;
6093;SDS011;19964;42.060;24.700;2022-11-20T12:41:03;14.38;;;4.40;;
6093;SDS011;19964;42.060;24.700;2022-11-20T12:43:40;13.52;;;5.10;;
6093;SDS011;19964;42.060;24.700;2022-11-20T12:46:31;11.57;;;4.55;;
6093;SDS011;19964;42.060;24.700;2022-11-20T12:49:12;13.27;;;4.68;;
6093;SDS011;19964;42.060;24.700;2022-11-20T12:51:57;12.30;;;4.63;;
6093;SDS011;19964;42.060;24.700;2022-11-20T12:54:38;11.05;;;4.57;;
6093;SDS011;19964;42.060;24.700;2022-11-20T12:57:18;9.65;;;4.75;;
6093;SDS011;19964;42.060;24.700;2022-11-20T13:00:06;12.80;;;5.25;;
6093;SDS011;19964;42.060;24.700;2022-11-20T13:02:40;10.20;;;4.03;;
6093;SDS011;19964;42.060;24.700;2022-11-20T13:05:21;15.10;;;5.22;;
6093;SDS011;19964;42.060;24.700;2022-11-20T13:07:54;13.93;;;4.55;;
6093;SDS011;19964;42.060;24.700;2022-11-20T13:10:26;11.63;;;4.32;;
6093;SDS011;19964;42.060;24.700;2022-11-20T13:13:00;12.55;;;3.60;;
6093;SDS011;19964;42.060;24.700;2022-11-20T13:15:44;13.18;;;3.75;;
6093;SDS011;19964;42.060;24.700;2022-11-20T13:18:17;8.20;;;3.50;;
6093;SDS011;19964;42.060;24.700;2022-11-20T13:20:44;12.00;;;3.53;;
6093;SDS011;19964;42.060;24.700;2022-11-20T13:23:22;16.15;;;3.22;;
6093;SDS011;19964;42.060;24.700;2022-11-20T13:26:01;13.07;;;2.88;;
6093;SDS011;19964;42.060;24.700;2022-11-20T13:28:29;9.23;;;3.00;;
6093;SDS011;19964;42.060;24.700;2022-11-20T13:30:57;14.90;;;3.30;;
6093;SDS011;19964;42.060;24.700;2022-11-20T13:33:27;10.40;;;3.22;;
6093;SDS011;19964;42.060;24.700;2022-11-20T13:35:57;9.68;;;2.60;;
6093;SDS011;19964;42.060;24.700;2022-11-20T13:38:25;9.70;;;2.97;;
6093;SDS011;19964;42.060;24.700;2022-11-20T13:40:54;11.05;;;3.63;;
6093;SDS011;19964;42.060;24.700;2022-11-20T13:43:46;12.10;;;2.67;;
6093;SDS011;19964;42.060;24.700;2022-11-20T13:46:14;10.90;;;3.10;;
6093;SDS011;19964;42.060;24.700;2022-11-20T13:48:41;13.55;;;3.10;;
6093;SDS011;19964;42.060;24.700;2022-11-20T13:51:15;10.77;;;3.47;;
6093;SDS011;19964;42.060;24.700;2022-11-20T13:53:57;13.60;;;3.20;;
6093;SDS011;19964;42.060;24.700;2022-11-20T13:56:43;14.07;;;3.40;;
6093;SDS011;19964;42.060;24.700;2022-11-20T13:59:28;12.37;;;3.17;;
6093;SDS011;19964;42.060;24.700;2022-11-20T14:02:10;11.13;;;3.03;;
6093;SDS011;19964;42.060;24.700;2022-11-20T14:04:41;9.23;;;2.23;;
6093;SDS011;19964;42.060;24.700;2022-11-20T14:07:11;10.77;;;2.23;;
6093;SDS011;19964;42.060;24.700;2022-11-20T14:09:38;6.50;;;1.70;;
6093;SDS011;19964;42.060;24.700;2022-11-20T14:12:18;6.67;;;1.50;;
6093;SDS011;19964;42.060;24.700;2022-11-20T14:14:47;8.63;;;1.73;;
6093;SDS011;19964;42.060;24.700;2022-11-20T14:17:18;4.93;;;1.50;;
6093;SDS011;19964;42.060;24.700;2022-11-20T14:19:46;4.83;;;1.20;;
6093;SDS011;19964;42.060;24.700;2022-11-20T14:22:19;3.47;;;1.40;;
6093;SDS011;19964;42.060;24.700;2022-11-20T14:24:48;5.90;;;1.80;;
6093;SDS011;19964;42.060;24.700;2022-11-20T14:27:16;4.20;;;1.50;;
6093;SDS011;19964;42.060;24.700;2022-11-20T14:29:47;6.40;;;1.97;;
6093;SDS011;19964;42.060;24.700;2022-11-20T14:32:17;4.00;;;1.53;;
6093;SDS011;19964;42.060;24.700;2022-11-20T14:34:47;3.10;;;1.53;;
6093;SDS011;19964;42.060;24.700;2022-11-20T14:37:17;5.53;;;1.50;;
6093;SDS011;19964;42.060;24.700;2022-11-20T14:39:48;3.73;;;1.70;;
6093;SDS011;19964;42.060;24.700;2022-11-20T14:42:20;3.30;;;1.57;;
6093;SDS011;19964;42.060;24.700;2022-11-20T14:44:48;6.00;;;2.60;;
6093;SDS011;19964;42.060;24.700;2022-11-20T14:47:17;5.70;;;1.90;;
6093;SDS011;19964;42.060;24.700;2022-11-20T14:49:48;2.87;;;1.60;;
6093;SDS011;19964;42.060;24.700;2022-11-20T14:52:17;6.17;;;2.03;;
6093;SDS011;19964;42.060;24.700;2022-11-20T14:54:47;4.73;;;1.60;;
6093;SDS011;19964;42.060;24.700;2022-11-20T14:57:25;7.47;;;2.97;;
6093;SDS011;19964;42.060;24.700;2022-11-20T15:00:07;3.97;;;1.70;;
6093;SDS011;19964;42.060;24.700;2022-11-20T15:02:47;3.63;;;1.60;;
6093;SDS011;19964;42.060;24.700;2022-11-20T15:05:16;11.27;;;5.07;;